Time;durP1;ratioP1;P1;durP2;ratioP2;P2;SDS_P1;SDS_P2;PMS_P1;PMS_P2;Temp;Humidity;BMP_temperature;BMP_pressure;BME280_temperature;BME280_humidity;BME280_pressure;Samples;Min_cycle;Max_cycle;Signal;HPM_P1;HPM_P2
2024/02/24 00:01:42;;;;;;;16.00;8.90;;;;;;;2.80;79.27;100256.35;82074;1295;3012674;-76
2024/02/24 00:04:09;;;;;;;18.30;9.30;;;;;;;2.59;80.37;100260.67;81997;1300;3011253;-75
2024/02/24 00:06:39;;;;;;;17.90;9.30;;;;;;;2.46;81.29;100261.04;80762;1296;3050952;-76
2024/02/24 00:09:06;;;;;;;20.30;9.90;;;;;;;2.47;81.60;100268.64;82047;1297;3011510;-75
2024/02/24 00:11:34;;;;;;;21.40;10.30;;;;;;;2.50;81.33;100269.96;82026;1296;3011196;-76
2024/02/24 00:14:02;;;;;;;19.90;9.50;;;;;;;2.44;81.63;100268.50;80733;1294;3051547;-76
2024/02/24 00:16:29;;;;;;;21.80;9.90;;;;;;;2.37;82.15;100265.48;82106;1297;3012933;-75
2024/02/24 00:18:59;;;;;;;19.40;10.20;;;;;;;2.33;82.28;100267.27;82077;1298;3011250;-75
2024/02/24 00:21:26;;;;;;;18.30;10.00;;;;;;;2.33;82.37;100262.79;80794;1294;3052815;-76
2024/02/24 00:23:53;;;;;;;15.30;7.70;;;;;;;2.23;82.91;100261.70;82089;1294;3018019;-77
2024/02/24 00:26:21;;;;;;;18.00;9.20;;;;;;;2.71;82.00;100261.02;82077;1294;3011264;-75
2024/02/24 00:28:49;;;;;;;17.10;9.60;;;;;;;3.37;79.57;100264.40;80781;1295;3050888;-76
2024/02/24 00:31:16;;;;;;;19.60;9.90;;;;;;;3.45;78.22;100267.02;82076;1297;3018845;-75
2024/02/24 00:33:43;;;;;;;16.90;9.00;;;;;;;3.35;78.40;100264.95;82024;1299;3011269;-77
2024/02/24 00:36:11;;;;;;;22.40;10.00;;;;;;;3.20;78.89;100263.83;80817;1294;3025747;-75
2024/02/24 00:38:38;;;;;;;23.50;10.60;;;;;;;2.87;79.88;100264.56;82069;1294;3012964;-75
2024/02/24 00:41:05;;;;;;;23.70;11.00;;;;;;;2.73;80.54;100257.86;82073;1294;3010922;-76
2024/02/24 00:43:33;;;;;;;18.00;9.80;;;;;;;2.57;81.22;100257.92;80799;1294;3049979;-77
2024/02/24 00:46:00;;;;;;;22.30;10.40;;;;;;;2.49;81.80;100259.27;82095;1298;3012797;-76
2024/02/24 00:48:29;;;;;;;21.10;10.60;;;;;;;2.41;82.41;100257.66;82068;1298;3011141;-76
2024/02/24 00:50:57;;;;;;;21.00;10.00;;;;;;;2.30;82.85;100251.23;80833;1294;3050978;-75
2024/02/24 00:53:24;;;;;;;19.90;10.30;;;;;;;2.27;83.43;100256.81;82102;1294;3018027;-74
2024/02/24 00:55:50;;;;;;;19.40;9.60;;;;;;;2.33;83.17;100254.48;82054;1294;3011173;-75
2024/02/24 00:58:18;;;;;;;19.80;11.10;;;;;;;2.30;82.98;100258.49;80815;1294;3026252;-74
2024/02/24 01:00:45;;;;;;;19.60;11.00;;;;;;;2.22;83.37;100254.80;82062;1298;3018185;-75
2024/02/24 01:03:12;;;;;;;16.60;8.30;;;;;;;2.18;83.92;100252.08;82063;1298;3011582;-75
2024/02/24 01:05:41;;;;;;;18.50;9.70;;;;;;;2.72;82.81;100251.64;80817;1295;3026219;-75
2024/02/24 01:08:08;;;;;;;22.10;9.40;;;;;;;3.13;80.58;100256.86;82067;1294;3012530;-76
2024/02/24 01:10:34;;;;;;;22.10;10.10;;;;;;;3.19;80.04;100251.02;82122;1294;3013221;-75
2024/02/24 01:13:03;;;;;;;21.90;10.20;;;;;;;3.07;80.04;100247.79;80782;1294;3049918;-75
2024/02/24 01:15:29;;;;;;;19.50;9.90;;;;;;;2.86;80.75;100248.12;82066;1300;3012596;-75
2024/02/24 01:17:56;;;;;;;20.40;11.20;;;;;;;2.59;81.94;100244.58;82051;1297;3011479;-75
2024/02/24 01:20:24;;;;;;;18.00;9.80;;;;;;;2.40;82.84;100243.31;80805;1295;3027532;-75
2024/02/24 01:22:57;;;;;;;19.90;10.30;;;;;;;2.33;83.15;100241.70;82092;1294;3011154;-77
2024/02/24 01:25:25;;;;;;;19.20;9.80;;;;;;;2.14;83.61;100248.86;80824;1295;3052066;-75
2024/02/24 01:27:53;;;;;;;20.70;11.30;;;;;;;2.08;84.50;100254.47;82066;1298;3018110;-79
2024/02/24 01:30:19;;;;;;;20.30;10.30;;;;;;;2.10;84.35;100255.99;82077;1298;3011313;-76
2024/02/24 01:32:47;;;;;;;19.90;10.40;;;;;;;2.03;84.40;100256.09;80830;1294;3067615;-77
2024/02/24 01:35:13;;;;;;;22.40;11.30;;;;;;;1.83;85.45;100252.89;82081;1294;3012846;-77
2024/02/24 01:37:40;;;;;;;16.60;7.00;;;;;;;1.81;85.83;100259.83;82060;1294;3011085;-77
2024/02/24 01:40:08;;;;;;;19.30;9.10;;;;;;;2.30;84.98;100264.54;80809;1298;3025855;-75
2024/02/24 01:42:35;;;;;;;20.10;9.00;;;;;;;2.85;82.46;100257.48;82061;1294;3013144;-76
2024/02/24 01:45:01;;;;;;;19.70;10.00;;;;;;;2.99;81.14;100254.84;82034;1297;3011204;-74
2024/02/24 01:47:29;;;;;;;18.50;9.50;;;;;;;2.93;81.05;100257.02;80791;1295;3026302;-78
2024/02/24 01:49:56;;;;;;;19.90;10.50;;;;;;;2.87;81.14;100256.24;82185;1295;3013001;-78
2024/02/24 01:52:23;;;;;;;20.50;9.60;;;;;;;2.63;81.80;100253.86;82035;1294;3010787;-79
2024/02/24 01:54:53;;;;;;;25.50;9.80;;;;;;;2.44;82.77;100248.61;80768;1294;3026226;-76
2024/02/24 01:57:20;;;;;;;18.40;9.50;;;;;;;2.40;83.12;100245.91;81993;1295;3013273;-80
2024/02/24 01:59:47;;;;;;;20.20;10.70;;;;;;;2.33;83.31;100247.21;81984;1297;3011451;-79
2024/02/24 02:02:14;;;;;;;21.60;10.80;;;;;;;2.25;83.82;100250.27;80694;1295;3069908;-79
2024/02/24 02:04:43;;;;;;;21.50;9.80;;;;;;;2.17;84.22;100249.50;82079;1295;3012650;-78
2024/02/24 02:07:09;;;;;;;20.00;11.30;;;;;;;2.15;84.48;100246.61;82027;1294;3011296;-79
2024/02/24 02:09:54;;;;;;;22.10;10.60;;;;;;;2.12;84.72;100248.89;80800;1295;3052341;-79
2024/02/24 02:12:23;;;;;;;15.20;6.90;;;;;;;2.10;84.75;100252.20;80776;1294;3049684;-79
2024/02/24 02:14:50;;;;;;;18.50;8.80;;;;;;;2.80;83.36;100255.15;82071;1300;3013051;-77
2024/02/24 02:17:18;;;;;;;16.40;9.50;;;;;;;3.13;81.07;100255.83;82054;1299;3011208;-80
2024/02/24 02:19:46;;;;;;;22.00;9.90;;;;;;;3.27;80.03;100258.88;80772;1300;3053088;-77
2024/02/24 02:22:16;;;;;;;19.30;8.90;;;;;;;3.13;79.92;100255.99;82041;1294;3018414;-77
2024/02/24 02:24:44;;;;;;;17.80;9.30;;;;;;;2.95;80.65;100254.05;80783;1294;3052963;-78
2024/02/24 02:27:11;;;;;;;20.20;10.40;;;;;;;2.74;81.05;100254.23;82059;1298;3011886;-77
2024/02/24 02:29:38;;;;;;;22.10;10.10;;;;;;;2.57;82.03;100251.87;82016;1299;3011482;-74
2024/02/24 02:32:07;;;;;;;19.70;10.60;;;;;;;2.49;82.41;100254.07;80735;1300;3068655;-75
2024/02/24 02:34:34;;;;;;;18.90;9.70;;;;;;;2.48;82.61;100257.04;82015;1295;3012654;-75
2024/02/24 02:37:01;;;;;;;20.70;11.00;;;;;;;2.38;82.90;100262.90;82052;1295;3011588;-76
2024/02/24 02:39:29;;;;;;;20.90;10.90;;;;;;;2.32;83.12;100266.95;80764;1295;3053613;-75
2024/02/24 02:41:55;;;;;;;20.30;10.90;;;;;;;2.30;83.46;100265.94;82032;1295;3018633;-77
2024/02/24 02:44:23;;;;;;;26.00;11.00;;;;;;;2.23;83.95;100266.73;82022;1295;3011245;-77
2024/02/24 02:46:51;;;;;;;20.70;10.80;;;;;;;2.23;84.00;100271.73;80761;1296;3068464;-76
2024/02/24 02:49:17;;;;;;;14.70;7.70;;;;;;;2.19;84.00;100269.70;82035;1295;3012620;-75
2024/02/24 02:51:44;;;;;;;17.70;9.50;;;;;;;2.73;83.43;100264.42;82048;1295;3011374;-76
2024/02/24 02:54:12;;;;;;;19.80;10.10;;;;;;;3.14;80.72;100258.05;80747;1300;3026036;-75
2024/02/24 02:56:39;;;;;;;21.50;11.10;;;;;;;3.14;79.96;100260.66;82023;1300;3013738;-75
2024/02/24 02:59:06;;;;;;;21.60;11.00;;;;;;;2.98;80.27;100263.70;82032;1299;3011325;-75
2024/02/24 03:01:33;;;;;;;18.90;10.40;;;;;;;2.97;80.37;100263.20;80783;1295;3066854;-75
2024/02/24 03:04:00;;;;;;;19.60;10.70;;;;;;;2.83;80.54;100263.08;82054;1296;3012611;-75
2024/02/24 03:06:27;;;;;;;18.30;10.60;;;;;;;2.70;80.94;100263.79;82012;1296;3011235;-76
2024/02/24 03:08:54;;;;;;;22.20;11.40;;;;;;;2.58;81.33;100268.48;80713;1296;3027345;-76
2024/02/24 03:11:21;;;;;;;21.50;11.00;;;;;;;2.41;81.59;100275.63;82068;1298;3018284;-74
2024/02/24 03:13:48;;;;;;;22.20;11.10;;;;;;;2.32;81.95;100282.16;82026;1295;3011229;-71
2024/02/24 03:16:18;;;;;;;21.70;10.90;;;;;;;2.18;82.50;100278.89;80739;1297;3025760;-74
2024/02/24 03:18:45;;;;;;;23.40;12.80;;;;;;;2.23;82.38;100284.87;82019;1298;3011413;-73
2024/02/24 03:21:31;;;;;;;23.50;11.80;;;;;;;2.08;82.99;100284.72;81484;1295;3011075;-74
2024/02/24 03:24:00;;;;;;;24.40;12.30;;;;;;;2.08;83.14;100284.55;80692;1299;3050131;-74
2024/02/24 03:26:26;;;;;;;22.80;10.70;;;;;;;1.98;83.59;100284.84;81984;1299;3012787;-77
2024/02/24 03:28:53;;;;;;;19.90;9.40;;;;;;;1.91;84.19;100287.36;81897;1300;3011306;-76
2024/02/24 03:31:21;;;;;;;21.00;10.70;;;;;;;2.49;83.10;100288.98;80755;1300;3051255;-77
2024/02/24 03:33:47;;;;;;;20.40;10.70;;;;;;;2.99;80.68;100280.27;82030;1295;3012427;-77
2024/02/24 03:36:15;;;;;;;21.70;10.60;;;;;;;3.17;79.59;100280.33;81993;1295;3011434;-76
2024/02/24 03:38:44;;;;;;;20.70;10.90;;;;;;;3.10;79.52;100281.66;80769;1296;3047862;-77
2024/02/24 03:41:11;;;;;;;21.60;11.20;;;;;;;2.91;79.87;100283.37;82051;1295;3013349;-76
2024/02/24 03:43:38;;;;;;;22.90;12.20;;;;;;;2.79;80.34;100277.84;82009;1295;3011303;-76
2024/02/24 03:46:06;;;;;;;21.90;11.40;;;;;;;2.58;81.22;100280.41;80763;1295;3051861;-75
2024/02/24 03:48:33;;;;;;;22.90;12.70;;;;;;;2.66;80.74;100279.95;82059;1296;3011579;-76
2024/02/24 03:51:00;;;;;;;21.10;12.20;;;;;;;2.46;81.65;100283.52;82051;1295;3011403;-76
2024/02/24 03:53:28;;;;;;;20.70;11.90;;;;;;;2.42;81.76;100282.53;80773;1296;3025709;-76
2024/02/24 03:55:55;;;;;;;22.00;11.60;;;;;;;2.26;82.62;100283.61;82029;1296;3012822;-75
2024/02/24 03:58:22;;;;;;;21.10;10.90;;;;;;;2.13;83.59;100280.34;82023;1300;3011375;-76
2024/02/24 04:00:51;;;;;;;26.70;12.40;;;;;;;2.10;83.88;100276.75;80806;1300;3050891;-77
2024/02/24 04:03:17;;;;;;;23.90;11.60;;;;;;;2.08;84.44;100278.31;82072;1295;3013188;-77
2024/02/24 04:05:45;;;;;;;17.80;7.90;;;;;;;2.09;84.31;100277.27;82048;1295;3011305;-74
2024/02/24 04:08:13;;;;;;;20.50;9.50;;;;;;;2.60;83.33;100283.15;80755;1296;3049051;-75
2024/02/24 04:10:41;;;;;;;22.90;10.50;;;;;;;3.10;81.17;100284.61;82051;1295;3012614;-74
2024/02/24 04:13:08;;;;;;;19.70;10.20;;;;;;;3.30;80.19;100288.59;82004;1296;3011399;-74
2024/02/24 04:15:36;;;;;;;19.10;9.80;;;;;;;3.14;80.03;100292.85;80778;1297;3054221;-74
2024/02/24 04:18:03;;;;;;;18.00;9.70;;;;;;;3.01;80.62;100301.37;82040;1294;3013102;-73
2024/02/24 04:20:30;;;;;;;23.30;11.50;;;;;;;2.88;80.88;100301.58;82007;1295;3011327;-75
2024/02/24 04:22:58;;;;;;;20.10;10.60;;;;;;;2.82;81.21;100301.67;80736;1294;3048741;-75
2024/02/24 04:25:24;;;;;;;19.40;10.70;;;;;;;2.67;81.60;100304.31;82054;1295;3013221;-75
2024/02/24 04:27:52;;;;;;;20.00;10.40;;;;;;;2.61;81.93;100307.70;82097;1294;3011160;-74
2024/02/24 04:30:19;;;;;;;19.40;10.80;;;;;;;2.52;82.10;100313.01;80841;1294;3050636;-72
2024/02/24 04:32:46;;;;;;;18.60;10.00;;;;;;;2.40;82.82;100317.67;82126;1294;3012782;-75
2024/02/24 04:35:13;;;;;;;19.20;10.60;;;;;;;2.42;83.08;100317.47;82059;1294;3011257;-76
2024/02/24 04:37:41;;;;;;;22.30;10.50;;;;;;;2.44;82.91;100325.23;80706;1294;3025137;-74
2024/02/24 04:40:08;;;;;;;17.00;10.10;;;;;;;2.40;83.11;100324.77;82130;1294;3018388;-74
2024/02/24 04:42:34;;;;;;;18.50;10.70;;;;;;;2.40;83.11;100327.00;82088;1294;3011980;-75
2024/02/24 04:45:02;;;;;;;17.40;8.20;;;;;;;2.40;83.28;100333.58;80819;1295;3025185;-74
2024/02/24 04:47:29;;;;;;;14.30;8.20;;;;;;;2.90;82.14;100334.60;82110;1294;3012716;-74
2024/02/24 04:49:55;;;;;;;17.40;8.60;;;;;;;3.37;79.94;100334.70;82084;1295;3011173;-73
2024/02/24 04:52:24;;;;;;;19.70;10.30;;;;;;;3.54;79.09;100333.73;80840;1294;3025472;-74
2024/02/24 04:54:51;;;;;;;17.40;8.90;;;;;;;3.47;78.78;100340.07;82107;1294;3012620;-73
2024/02/24 04:57:17;;;;;;;16.60;9.40;;;;;;;3.35;79.06;100339.75;82092;1294;3011943;-73
2024/02/24 04:59:45;;;;;;;18.90;9.40;;;;;;;3.22;79.39;100345.17;80836;1294;3052438;-74
2024/02/24 05:02:12;;;;;;;18.50;8.90;;;;;;;3.07;79.91;100357.36;82096;1294;3013085;-73
2024/02/24 05:04:38;;;;;;;16.30;9.10;;;;;;;3.02;79.86;100359.86;82100;1294;3011401;-73
2024/02/24 05:07:06;;;;;;;17.80;9.50;;;;;;;2.80;80.62;100358.30;80792;1294;3026691;-72
2024/02/24 05:09:32;;;;;;;19.50;9.90;;;;;;;2.79;81.02;100362.28;82052;1295;3011404;-75
2024/02/24 05:11:59;;;;;;;18.60;9.70;;;;;;;2.78;80.93;100371.11;82010;1294;3011440;-75
2024/02/24 05:14:27;;;;;;;18.60;9.80;;;;;;;2.77;81.15;100379.09;80752;1300;3025922;-74
2024/02/24 05:16:53;;;;;;;20.00;10.20;;;;;;;2.70;81.36;100382.48;82037;1295;3018066;-75
2024/02/24 05:19:20;;;;;;;18.20;10.00;;;;;;;2.68;81.80;100380.94;82018;1295;3011434;-74
2024/02/24 05:21:48;;;;;;;17.20;9.40;;;;;;;2.67;81.68;100378.17;80759;1294;3026257;-77
2024/02/24 05:24:17;;;;;;;20.60;8.70;;;;;;;2.70;81.52;100383.17;82042;1294;3012763;-75
2024/02/24 05:26:46;;;;;;;18.00;9.90;;;;;;;2.70;81.72;100377.11;81549;1294;3011265;-75
2024/02/24 05:29:16;;;;;;;19.20;9.30;;;;;;;2.71;81.55;100373.80;82125;1294;3012626;-73
2024/02/24 05:31:45;;;;;;;19.10;10.60;;;;;;;2.63;81.91;100374.27;81592;1294;3011107;-74
2024/02/24 05:34:11;;;;;;;17.10;9.40;;;;;;;2.57;82.42;100372.95;82074;1296;3012363;-76
2024/02/24 05:36:38;;;;;;;15.10;7.70;;;;;;;2.62;82.37;100371.16;82119;1294;3011092;-77
2024/02/24 05:39:06;;;;;;;14.60;8.50;;;;;;;3.09;81.33;100366.33;80817;1294;3026480;-77
2024/02/24 05:41:33;;;;;;;18.40;8.80;;;;;;;3.73;78.77;100360.94;82117;1294;3011135;-77
2024/02/24 05:43:59;;;;;;;17.40;9.30;;;;;;;3.90;77.47;100361.84;82111;1294;3011346;-77
2024/02/24 05:46:27;;;;;;;16.50;8.20;;;;;;;3.92;77.19;100363.71;80841;1294;3052092;-77
2024/02/24 05:48:54;;;;;;;14.90;8.30;;;;;;;3.81;77.26;100365.11;82122;1294;3012840;-74
2024/02/24 05:51:21;;;;;;;18.80;9.30;;;;;;;3.64;77.47;100369.08;82088;1294;3011360;-76
2024/02/24 05:53:49;;;;;;;15.10;8.10;;;;;;;3.49;77.79;100369.32;80861;1294;3027124;-77
2024/02/24 05:56:16;;;;;;;19.60;8.90;;;;;;;3.42;78.50;100370.66;82105;1294;3012996;-75
2024/02/24 05:58:42;;;;;;;14.70;8.80;;;;;;;3.42;78.40;100371.52;82115;1294;3011424;-73
2024/02/24 06:01:10;;;;;;;15.50;8.50;;;;;;;3.27;79.07;100370.73;80860;1294;3026232;-77
2024/02/24 06:03:37;;;;;;;18.40;8.70;;;;;;;3.30;78.98;100373.78;82104;1294;3013316;-76
2024/02/24 06:06:04;;;;;;;15.40;8.40;;;;;;;3.38;78.94;100372.80;82073;1294;3011583;-75
2024/02/24 06:08:33;;;;;;;15.20;8.50;;;;;;;3.42;78.73;100375.16;80720;1294;3048510;-74
2024/02/24 06:10:59;;;;;;;17.30;9.60;;;;;;;3.39;78.72;100378.48;82090;1294;3013280;-74
2024/02/24 06:13:26;;;;;;;15.20;8.40;;;;;;;3.32;78.88;100380.51;82054;1294;3011454;-75
2024/02/24 06:15:54;;;;;;;23.70;9.50;;;;;;;3.35;78.81;100382.37;80778;1298;3026580;-76
2024/02/24 06:18:21;;;;;;;15.30;8.40;;;;;;;3.37;78.69;100389.95;82051;1294;3018258;-76
2024/02/24 06:20:47;;;;;;;19.70;9.40;;;;;;;3.42;78.82;100388.16;82016;1296;3011382;-76
2024/02/24 06:23:15;;;;;;;21.60;8.20;;;;;;;3.47;78.74;100386.84;80822;1294;3026035;-75
2024/02/24 06:25:42;;;;;;;15.20;8.00;;;;;;;3.55;78.26;100386.71;82038;1294;3012830;-76
2024/02/24 06:28:10;;;;;;;14.90;8.40;;;;;;;3.52;78.35;100387.12;82064;1294;3011153;-74
2024/02/24 06:30:38;;;;;;;12.50;7.60;;;;;;;3.57;78.22;100385.29;80757;1294;3051322;-73
2024/02/24 06:33:05;;;;;;;15.30;8.60;;;;;;;3.57;78.35;100383.05;81950;1297;3018159;-74
2024/02/24 06:35:32;;;;;;;14.20;8.60;;;;;;;3.67;77.68;100385.13;81942;1297;3011446;-75
2024/02/24 06:38:00;;;;;;;15.20;8.10;;;;;;;3.66;77.92;100388.77;80683;1296;3026077;-76
2024/02/24 06:40:27;;;;;;;15.20;8.40;;;;;;;3.79;77.69;100394.10;81968;1295;3013179;-76
2024/02/24 06:42:54;;;;;;;17.80;8.50;;;;;;;3.84;77.14;100395.92;81945;1297;3011329;-75
2024/02/24 06:45:22;;;;;;;15.60;8.80;;;;;;;3.95;77.01;100398.98;80720;1297;3026422;-75
2024/02/24 06:47:48;;;;;;;13.70;7.60;;;;;;;4.05;76.63;100399.17;82034;1295;3018431;-76
2024/02/24 06:50:15;;;;;;;16.90;8.60;;;;;;;4.09;76.08;100400.30;82008;1298;3011401;-75
2024/02/24 06:52:43;;;;;;;15.40;8.70;;;;;;;4.23;75.71;100404.71;80781;1296;3024707;-77
2024/02/24 06:55:09;;;;;;;14.60;8.00;;;;;;;4.24;75.76;100407.31;82050;1296;3012744;-75
2024/02/24 06:57:37;;;;;;;16.90;8.00;;;;;;;4.27;75.61;100404.84;81982;1296;3011326;-76
2024/02/24 07:00:06;;;;;;;16.00;7.80;;;;;;;4.28;75.45;100403.77;80727;1297;3025991;-70
2024/02/24 07:02:33;;;;;;;12.30;8.00;;;;;;;4.30;75.47;100396.94;82038;1298;3011196;-79
2024/02/24 07:05:02;;;;;;;18.70;8.40;;;;;;;4.28;75.42;100395.09;82043;1295;3011262;-74
2024/02/24 07:07:30;;;;;;;16.40;8.10;;;;;;;4.38;75.33;100400.60;80758;1295;3047887;-77
2024/02/24 07:09:56;;;;;;;16.30;8.80;;;;;;;4.46;75.08;100393.52;82088;1295;3013239;-79
2024/02/24 07:12:23;;;;;;;17.90;8.70;;;;;;;4.51;74.77;100390.98;82023;1300;3010945;-78
2024/02/24 07:14:52;;;;;;;14.30;8.00;;;;;;;4.71;74.13;100392.45;80750;1294;3051194;-76
2024/02/24 07:17:19;;;;;;;16.90;8.50;;;;;;;4.76;73.66;100386.12;82043;1294;3018010;-78
2024/02/24 07:19:45;;;;;;;15.60;7.20;;;;;;;4.73;73.24;100378.36;82028;1294;3011481;-71
2024/02/24 07:22:14;;;;;;;13.50;7.40;;;;;;;4.84;72.85;100380.05;80751;1295;3026755;-76
2024/02/24 07:24:41;;;;;;;13.00;6.30;;;;;;;5.01;72.24;100382.09;82065;1294;3012717;-74
2024/02/24 07:27:09;;;;;;;12.30;7.00;;;;;;;4.93;71.55;100382.59;82025;1294;3011164;-74
2024/02/24 07:29:37;;;;;;;10.20;5.90;;;;;;;4.85;71.33;100384.69;80727;1297;3051139;-74
2024/02/24 07:32:05;;;;;;;15.40;6.30;;;;;;;4.83;71.00;100381.10;82058;1294;3019303;-77
2024/02/24 07:34:33;;;;;;;12.50;5.80;;;;;;;4.87;70.68;100379.27;82033;1294;3011368;-75
2024/02/24 07:37:01;;;;;;;10.10;6.20;;;;;;;4.84;70.38;100372.38;80704;1295;3049672;-77
2024/02/24 07:39:28;;;;;;;13.00;5.90;;;;;;;4.81;70.60;100375.77;82102;1294;3012513;-77
2024/02/24 07:41:55;;;;;;;10.70;5.70;;;;;;;4.85;70.60;100371.67;82035;1294;3011236;-77
2024/02/24 07:44:24;;;;;;;12.70;6.10;;;;;;;4.94;70.72;100369.55;80775;1294;3051185;-78
2024/02/24 07:46:51;;;;;;;12.20;6.20;;;;;;;5.02;70.41;100370.59;82075;1294;3012373;-80
2024/02/24 07:49:18;;;;;;;15.70;5.80;;;;;;;5.03;70.13;100369.38;81913;1294;3011379;-79
2024/02/24 07:51:47;;;;;;;9.50;5.00;;;;;;;5.09;69.83;100370.43;80827;1294;3048390;-77
2024/02/24 07:54:14;;;;;;;9.50;5.40;;;;;;;5.15;69.51;100374.11;82096;1294;3011204;-74
2024/02/24 07:56:42;;;;;;;9.00;5.00;;;;;;;5.21;69.60;100370.48;82113;1294;3011316;-79
2024/02/24 07:59:10;;;;;;;8.80;5.30;;;;;;;5.30;69.29;100372.70;80807;1296;3051615;-76
2024/02/24 08:01:36;;;;;;;10.40;5.10;;;;;;;5.32;68.95;100367.98;82144;1294;3012482;-77
2024/02/24 08:04:03;;;;;;;9.40;5.70;;;;;;;5.41;68.71;100373.48;82035;1294;3011252;-76
2024/02/24 08:06:32;;;;;;;11.90;6.00;;;;;;;5.46;68.60;100373.70;80831;1294;3026814;-74
2024/02/24 08:09:00;;;;;;;8.90;4.40;;;;;;;5.45;68.84;100374.79;81869;1294;3378434;-74
2024/02/24 08:11:36;;;;;;;6.60;4.20;;;;;;;5.50;68.37;100372.04;81549;1294;3011414;-76
2024/02/24 08:14:08;;;;;;;8.30;5.10;;;;;;;5.62;68.09;100366.69;81539;1294;3011180;-74
2024/02/24 08:16:35;;;;;;;10.80;5.00;;;;;;;5.74;67.89;100370.04;82040;1297;3011186;-77
2024/02/24 08:19:06;;;;;;;11.10;5.10;;;;;;;5.88;67.54;100369.85;81533;1294;3011863;-72
2024/02/24 08:21:37;;;;;;;11.90;5.60;;;;;;;6.01;66.98;100361.85;82062;1294;3012508;-75
2024/02/24 08:24:10;;;;;;;7.70;5.20;;;;;;;6.06;66.60;100373.40;80846;1294;3051410;-77
2024/02/24 08:26:43;;;;;;;8.60;5.40;;;;;;;6.11;66.49;100369.25;81458;1295;3011229;-72
2024/02/24 08:29:10;;;;;;;8.80;4.70;;;;;;;6.19;66.31;100373.89;82029;1294;3011178;-76
2024/02/24 08:31:39;;;;;;;9.50;5.00;;;;;;;6.38;65.89;100372.15;81523;1294;3011551;-73
2024/02/24 08:34:05;;;;;;;9.80;4.90;;;;;;;6.43;65.55;100378.45;82033;1299;3012577;-71
2024/02/24 08:36:32;;;;;;;6.50;4.00;;;;;;;6.52;65.24;100380.97;82033;1296;3011307;-70
2024/02/24 08:39:00;;;;;;;11.50;4.30;;;;;;;6.60;65.10;100384.39;80790;1295;3026489;-71
2024/02/24 08:41:27;;;;;;;9.30;4.00;;;;;;;6.73;64.53;100380.87;82100;1294;3011218;-73
2024/02/24 08:43:55;;;;;;;7.50;4.50;;;;;;;6.80;64.07;100373.36;82071;1294;3011362;-74
2024/02/24 08:46:23;;;;;;;8.20;4.70;;;;;;;6.96;63.49;100374.77;80845;1294;3049899;-75
2024/02/24 08:48:51;;;;;;;7.10;4.30;;;;;;;7.08;63.31;100378.06;82123;1294;3012916;-76
2024/02/24 08:51:19;;;;;;;10.70;4.40;;;;;;;7.18;62.76;100387.15;81992;1295;3011214;-69
2024/02/24 08:53:48;;;;;;;8.70;4.30;;;;;;;7.29;62.58;100388.17;80777;1298;3050591;-72
2024/02/24 08:56:22;;;;;;;6.50;4.00;;;;;;;7.43;62.10;100385.32;82093;1294;3012797;-75
2024/02/24 08:58:50;;;;;;;6.10;4.00;;;;;;;7.51;61.99;100391.84;80806;1294;3056263;-76
2024/02/24 09:01:18;;;;;;;7.80;4.60;;;;;;;7.49;61.73;100389.13;82122;1294;3018253;-75
2024/02/24 09:03:46;;;;;;;7.20;4.60;;;;;;;7.53;61.41;100393.19;82012;1295;3011444;-73
2024/02/24 09:06:15;;;;;;;11.10;5.00;;;;;;;7.66;61.79;100385.06;80831;1298;3051371;-73
2024/02/24 09:08:42;;;;;;;7.40;4.50;;;;;;;7.77;61.25;100386.43;82091;1294;3011042;-73
2024/02/24 09:11:08;;;;;;;7.70;4.20;;;;;;;7.84;61.56;100388.63;82142;1294;3011558;-71
2024/02/24 09:13:37;;;;;;;7.30;3.90;;;;;;;7.90;61.21;100386.00;80760;1294;3054780;-72
2024/02/24 09:18:42;;;;;;;12.10;4.70;;;;;;;8.00;60.67;100387.05;80765;1296;3013666;-73
2024/02/24 09:21:09;;;;;;;8.60;4.60;;;;;;;8.13;60.47;100393.57;79688;1299;3018653;-72
2024/02/24 09:23:36;;;;;;;7.20;4.20;;;;;;;8.20;59.83;100391.04;79664;1306;3011930;-72
2024/02/24 09:26:04;;;;;;;10.40;4.20;;;;;;;8.19;59.66;100389.16;78629;1298;3026259;-72
2024/02/24 09:28:30;;;;;;;7.50;4.30;;;;;;;8.27;59.99;100385.89;79753;1306;3012997;-74
2024/02/24 09:30:58;;;;;;;8.00;5.00;;;;;;;8.36;60.14;100388.36;79564;1294;3011890;-72
2024/02/24 09:33:27;;;;;;;7.30;4.00;;;;;;;8.34;59.72;100384.94;78958;1295;3048795;-74
2024/02/24 09:35:55;;;;;;;8.40;3.70;;;;;;;8.29;59.76;100389.48;79875;1295;3013056;-72
2024/02/24 09:38:24;;;;;;;6.50;4.20;;;;;;;8.34;59.50;100391.77;79919;1295;3011646;-74
2024/02/24 09:40:52;;;;;;;9.00;4.00;;;;;;;8.19;59.10;100399.97;78809;1296;3052978;-74
2024/02/24 09:43:18;;;;;;;6.80;4.40;;;;;;;8.35;59.08;100399.75;79813;1298;3013160;-69
2024/02/24 09:45:46;;;;;;;9.40;3.90;;;;;;;8.43;59.08;100395.30;79736;1297;3011639;-72
2024/02/24 09:48:15;;;;;;;7.50;4.30;;;;;;;8.54;58.86;100393.86;78581;1292;3047062;-74
2024/02/24 09:50:42;;;;;;;6.10;3.60;;;;;;;8.58;58.41;100394.23;79786;1302;3013550;-73
2024/02/24 09:53:09;;;;;;;5.90;3.30;;;;;;;8.70;57.95;100394.80;80595;1292;3011554;-75
2024/02/24 09:55:37;;;;;;;5.10;3.10;;;;;;;8.87;57.55;100392.79;78719;1293;3027145;-76
2024/02/24 09:58:08;;;;;;;7.10;3.30;;;;;;;8.93;56.61;100389.73;79855;1295;3013657;-73
2024/02/24 10:00:35;;;;;;;6.10;3.60;;;;;;;9.10;56.32;100387.01;78706;1295;3056774;-76
2024/02/24 10:03:02;;;;;;;5.50;3.60;;;;;;;9.26;56.23;100391.42;79849;1295;3013540;-75
2024/02/24 10:05:29;;;;;;;9.30;3.80;;;;;;;9.48;55.62;100392.25;79743;1292;3011609;-77
2024/02/24 10:07:58;;;;;;;5.80;3.70;;;;;;;9.62;54.80;100386.42;78707;1298;3026619;-75
2024/02/24 10:10:28;;;;;;;6.30;3.50;;;;;;;9.71;54.64;100388.14;80157;1295;3013277;-75
2024/02/24 10:12:57;;;;;;;5.60;3.30;;;;;;;9.78;53.57;100389.80;79235;1299;3011780;-76
2024/02/24 10:15:25;;;;;;;4.70;3.10;;;;;;;9.81;53.96;100395.80;79923;1293;3013324;-74
2024/02/24 10:17:56;;;;;;;7.50;3.60;;;;;;;9.89;53.89;100391.98;79835;1292;3012788;-74
2024/02/24 10:20:24;;;;;;;6.90;4.20;;;;;;;9.94;53.56;100392.95;78561;1297;3054031;-76
2024/02/24 10:22:51;;;;;;;8.60;3.40;;;;;;;9.98;53.46;100390.85;79871;1295;3015121;-75
2024/02/24 10:25:19;;;;;;;6.20;3.20;;;;;;;10.09;53.29;100393.20;79956;1297;3011673;-73
2024/02/24 10:27:47;;;;;;;7.50;3.20;;;;;;;9.99;53.12;100389.59;78514;1293;3068828;-74
2024/02/24 10:30:16;;;;;;;7.00;3.90;;;;;;;9.98;53.06;100391.24;79835;1292;3013643;-74
2024/02/24 10:32:43;;;;;;;6.90;3.30;;;;;;;9.81;53.25;100388.45;79879;1292;3011908;-73
2024/02/24 10:35:12;;;;;;;5.60;3.10;;;;;;;9.71;53.96;100381.84;78930;1298;3052796;-73
2024/02/24 10:37:38;;;;;;;6.10;3.60;;;;;;;9.89;53.27;100383.73;79866;1292;3021327;-76
2024/02/24 10:40:06;;;;;;;6.10;3.80;;;;;;;9.99;52.69;100375.61;79684;1298;3011637;-74
2024/02/24 10:42:34;;;;;;;5.40;3.20;;;;;;;10.10;52.23;100376.34;78628;1295;3068261;-76
2024/02/24 10:45:02;;;;;;;6.00;3.40;;;;;;;10.04;52.41;100378.87;79739;1292;3013244;-77
2024/02/24 10:47:29;;;;;;;5.20;3.40;;;;;;;10.02;52.75;100374.23;79809;1293;3011848;-74
2024/02/24 10:49:57;;;;;;;6.20;3.20;;;;;;;10.14;52.38;100378.11;78565;1295;3053974;-73
2024/02/24 10:52:24;;;;;;;6.80;3.20;;;;;;;10.21;52.51;100382.36;79740;1298;3018754;-74
2024/02/24 10:54:52;;;;;;;3.20;2.30;;;;;;;10.12;51.77;100375.55;79853;1298;3011432;-72
2024/02/24 10:57:20;;;;;;;5.00;3.00;;;;;;;10.10;52.39;100372.14;78751;1292;3068878;-73
2024/02/24 10:59:47;;;;;;;8.10;3.10;;;;;;;10.19;52.45;100375.23;79897;1297;3018370;-73
2024/02/24 11:02:15;;;;;;;3.70;2.50;;;;;;;10.08;52.58;100378.16;79862;1298;3011588;-74
2024/02/24 11:04:44;;;;;;;7.70;2.90;;;;;;;10.04;52.19;100372.91;78366;1302;3054079;-75
2024/02/24 11:07:18;;;;;;;6.40;2.50;;;;;;;10.05;52.37;100376.73;79500;1293;3013057;-74
2024/02/24 11:09:51;;;;;;;6.10;3.20;;;;;;;10.03;52.61;100383.13;78533;1295;3052999;-72
2024/02/24 11:12:22;;;;;;;8.00;3.20;;;;;;;10.17;52.59;100376.90;79943;1295;3013001;-72
2024/02/24 11:14:52;;;;;;;8.10;2.90;;;;;;;10.24;52.59;100369.41;78676;1293;3069986;-73